createdAt,value
2022-08-03T00:00:58.896Z,13.27
2022-08-03T00:03:29.502Z,13.88
2022-08-03T00:06:03.852Z,14.88
2022-08-03T00:08:40.137Z,16.60
2022-08-03T00:11:10.532Z,14.32
2022-08-03T00:13:40.533Z,21.80
2022-08-03T00:16:12.249Z,14.00
2022-08-03T00:18:43.076Z,18.63
2022-08-03T00:21:13.468Z,14.63
2022-08-03T00:23:51.537Z,16.33
2022-08-03T00:26:23.496Z,14.05
2022-08-03T00:28:53.889Z,16.20
2022-08-03T00:31:39.749Z,24.05
2022-08-03T00:34:14.376Z,23.48
2022-08-03T00:36:44.664Z,15.20
2022-08-03T00:39:15.249Z,14.60
2022-08-03T00:41:45.241Z,15.60
2022-08-03T00:44:15.306Z,13.43
2022-08-03T00:46:46.162Z,12.80
2022-08-03T00:49:17.275Z,13.45
2022-08-03T00:51:48.810Z,13.57
2022-08-03T00:54:20.277Z,15.57
2022-08-03T00:56:59.435Z,12.50
2022-08-03T00:59:32.499Z,13.60
2022-08-03T01:02:02.710Z,15.77
2022-08-03T01:04:32.741Z,16.05
2022-08-03T01:07:14.751Z,13.27
2022-08-03T01:10:03.449Z,11.95
2022-08-03T01:12:57.911Z,20.98
2022-08-03T01:15:47.995Z,11.55
2022-08-03T01:18:27.371Z,14.52
2022-08-03T01:21:02.688Z,12.98
2022-08-03T01:23:54.201Z,11.25
2022-08-03T01:27:00.031Z,15.02
2022-08-03T01:29:51.717Z,15.85
2022-08-03T01:32:53.268Z,15.15
2022-08-03T01:36:01.449Z,14.88
2022-08-03T01:38:37.351Z,18.08
2022-08-03T01:41:13.696Z,16.27
2022-08-03T01:44:28.359Z,13.60
2022-08-03T01:46:48.918Z,14.75
2022-08-03T01:49:19.794Z,17.98
2022-08-03T01:52:03.521Z,17.30
2022-08-03T01:54:42.575Z,18.45
2022-08-03T01:57:14.588Z,17.98
2022-08-03T01:59:47.102Z,14.65
2022-08-03T02:02:32.895Z,18.55
2022-08-03T02:05:10.934Z,14.38
2022-08-03T02:07:47.905Z,17.60
2022-08-03T02:10:23.566Z,18.80
2022-08-03T02:13:09.536Z,19.27
2022-08-03T02:15:40.894Z,14.68
2022-08-03T02:18:12.847Z,18.90
2022-08-03T02:20:45.908Z,11.57
2022-08-03T02:23:19.675Z,15.43
2022-08-03T02:25:55.163Z,11.13
2022-08-03T02:28:33.564Z,17.92
2022-08-03T02:31:13.293Z,14.88
2022-08-03T02:33:54.967Z,15.23
2022-08-03T02:36:32.764Z,15.63
2022-08-03T02:39:05.165Z,18.17
2022-08-03T02:41:43.531Z,14.77
2022-08-03T02:44:15.297Z,17.35
2022-08-03T02:46:49.349Z,11.82
2022-08-03T02:49:49.759Z,13.45
2022-08-03T02:52:15.646Z,14.05
2022-08-03T02:54:48.350Z,13.63
2022-08-03T02:59:51.487Z,17.42
2022-08-03T03:02:22.732Z,15.65
2022-08-03T03:05:52.072Z,12.63
2022-08-03T03:07:52.110Z,13.05
2022-08-03T03:10:24.545Z,14.35
2022-08-03T03:12:58.384Z,16.13
2022-08-03T03:15:30.788Z,14.95
2022-08-03T03:18:03.188Z,18.40
2022-08-03T03:20:35.064Z,16.60
2022-08-03T03:23:06.743Z,13.95
2022-08-03T03:25:38.158Z,22.15
2022-08-03T03:28:09.405Z,14.35
2022-08-03T03:30:39.901Z,15.27
2022-08-03T03:33:10.357Z,11.13
2022-08-03T03:35:42.683Z,17.33
2022-08-03T03:38:13.629Z,11.35
2022-08-03T03:40:44.121Z,13.35
2022-08-03T03:43:14.951Z,16.42
2022-08-03T03:45:45.507Z,14.75
2022-08-03T03:48:16.070Z,11.07
2022-08-03T03:50:47.196Z,14.18
2022-08-03T03:53:17.375Z,12.65
2022-08-03T03:55:59.348Z,11.90
2022-08-03T03:58:34.883Z,13.35
2022-08-03T04:01:05.068Z,10.38
2022-08-03T04:03:34.997Z,17.02
2022-08-03T04:06:23.936Z,13.93
2022-08-03T04:09:20.379Z,13.63
2022-08-03T04:11:59.475Z,12.35
2022-08-03T04:14:35.529Z,11.10
2022-08-03T04:17:10.696Z,14.02
2022-08-03T04:19:52.432Z,12.38
2022-08-03T04:22:28.105Z,9.70
2022-08-03T04:25:07.114Z,16.98
2022-08-03T04:27:40.438Z,13.85
2022-08-03T04:30:13.388Z,13.55
2022-08-03T04:32:46.416Z,10.57
2022-08-03T04:35:20.814Z,13.38
2022-08-03T04:37:55.000Z,12.07
2022-08-03T04:40:32.935Z,11.30
2022-08-03T04:43:04.620Z,10.80
2022-08-03T04:45:35.482Z,13.13
2022-08-03T04:48:07.552Z,10.52
2022-08-03T04:50:38.464Z,11.57
2022-08-03T04:53:09.657Z,10.27
2022-08-03T04:55:39.562Z,11.65
2022-08-03T04:58:09.861Z,10.57
2022-08-03T05:00:40.613Z,15.27
2022-08-03T05:03:23.920Z,11.05
2022-08-03T05:06:01.694Z,17.52
2022-08-03T05:08:45.968Z,13.55
2022-08-03T05:11:18.241Z,8.93
2022-08-03T05:13:49.434Z,9.40
2022-08-03T05:16:20.214Z,13.50
2022-08-03T05:18:50.487Z,15.27
2022-08-03T05:21:20.487Z,11.45
2022-08-03T05:23:51.096Z,10.05
2022-08-03T05:26:21.980Z,12.95
2022-08-03T05:28:52.024Z,11.50
2022-08-03T05:31:21.992Z,10.13
2022-08-03T05:33:52.441Z,10.07
2022-08-03T05:36:22.785Z,11.20
2022-08-03T05:38:53.329Z,11.02
2022-08-03T05:41:37.317Z,11.15
2022-08-03T05:44:08.192Z,11.05
2022-08-03T05:46:38.519Z,10.20
2022-08-03T05:49:09.123Z,12.75
2022-08-03T05:51:39.284Z,12.25
2022-08-03T05:54:09.290Z,9.75
2022-08-03T05:56:42.235Z,10.52
2022-08-03T05:59:37.111Z,12.90
2022-08-03T06:02:03.610Z,11.70
2022-08-03T06:04:33.565Z,11.57
2022-08-03T06:07:03.828Z,11.52
2022-08-03T06:10:34.880Z,10.35
2022-08-03T06:12:25.145Z,11.35
2022-08-03T06:14:55.444Z,10.63
2022-08-03T06:17:25.542Z,14.45
2022-08-03T06:19:57.149Z,12.13
2022-08-03T06:22:27.437Z,11.73
2022-08-03T06:25:04.337Z,18.40
2022-08-03T06:27:41.255Z,15.18
2022-08-03T06:30:13.159Z,10.30
2022-08-03T06:32:43.698Z,11.07
2022-08-03T06:35:22.945Z,12.38
2022-08-03T06:37:54.948Z,9.15
2022-08-03T06:40:35.396Z,11.05
2022-08-03T06:43:08.471Z,11.60
2022-08-03T06:45:43.306Z,11.13
2022-08-03T06:48:17.806Z,11.75
2022-08-03T06:50:47.767Z,10.20
2022-08-03T06:53:21.166Z,10.48
2022-08-03T06:55:54.719Z,10.63
2022-08-03T06:58:25.570Z,10.02
2022-08-03T07:00:55.525Z,9.98
2022-08-03T07:03:25.900Z,9.77
2022-08-03T07:05:56.700Z,14.07
2022-08-03T07:08:33.829Z,12.38
2022-08-03T07:11:04.704Z,12.10
2022-08-03T07:13:35.031Z,10.18
2022-08-03T07:16:05.757Z,11.63
2022-08-03T07:18:35.741Z,9.30
2022-08-03T07:21:05.898Z,10.88
2022-08-03T07:23:36.298Z,12.20
2022-08-03T07:26:07.611Z,9.68
2022-08-03T07:28:37.717Z,8.85
2022-08-03T07:31:07.577Z,8.63
2022-08-03T07:33:38.119Z,9.35
2022-08-03T07:36:08.512Z,9.57
2022-08-03T07:38:39.095Z,14.13
2022-08-03T07:41:09.612Z,9.32
2022-08-03T07:43:39.594Z,9.88
2022-08-03T07:46:09.983Z,9.25
2022-08-03T07:48:40.586Z,15.90
2022-08-03T07:51:10.458Z,10.98
2022-08-03T07:53:44.426Z,9.52
2022-08-03T07:56:18.683Z,11.88
2022-08-03T07:58:49.024Z,11.10
2022-08-03T08:01:20.852Z,11.80
2022-08-03T08:03:53.640Z,9.13
2022-08-03T08:06:24.227Z,12.32
2022-08-03T08:08:56.337Z,9.02
2022-08-03T08:11:27.049Z,12.85
2022-08-03T08:13:57.152Z,12.68
2022-08-03T08:16:27.070Z,15.35
2022-08-03T08:18:57.394Z,10.68
2022-08-03T08:21:27.850Z,12.77
2022-08-03T08:24:19.780Z,14.05
2022-08-03T08:26:50.776Z,9.77
2022-08-03T08:29:24.434Z,13.15
2022-08-03T08:31:55.274Z,11.85
2022-08-03T08:34:25.999Z,10.65
2022-08-03T08:36:56.264Z,10.82
2022-08-03T08:39:26.200Z,11.38
2022-08-03T08:41:56.331Z,9.02
2022-08-03T08:44:26.725Z,11.98
2022-08-03T08:46:59.359Z,13.13
2022-08-03T08:49:30.962Z,13.95
2022-08-03T08:52:02.864Z,15.40
2022-08-03T08:54:34.883Z,12.77
2022-08-03T08:57:21.325Z,13.98
2022-08-03T09:00:00.888Z,10.60
2022-08-03T09:02:32.575Z,13.25
2022-08-03T09:05:07.401Z,10.68
2022-08-03T09:07:38.675Z,12.40
2022-08-03T09:10:13.333Z,8.85
2022-08-03T09:12:52.796Z,10.23
2022-08-03T09:17:58.760Z,15.23
2022-08-03T09:23:44.639Z,11.13
2022-08-03T09:26:02.820Z,9.13
2022-08-03T09:28:59.388Z,11.45
2022-08-03T09:31:37.389Z,9.57
2022-08-03T09:34:12.471Z,11.45
2022-08-03T09:36:47.525Z,10.75
2022-08-03T09:39:41.582Z,10.18
2022-08-03T09:42:15.563Z,13.85
2022-08-03T09:44:50.981Z,10.23
2022-08-03T09:47:32.501Z,12.35
2022-08-03T09:50:14.244Z,13.48
2022-08-03T09:52:52.071Z,10.35
2022-08-03T09:56:31.137Z,11.05
2022-08-03T10:01:01.426Z,13.25
2022-08-03T10:04:03.263Z,12.23
2022-08-03T10:06:29.069Z,12.60
2022-08-03T10:09:09.790Z,14.25
2022-08-03T10:11:42.447Z,12.63
2022-08-03T10:14:21.052Z,11.25
2022-08-03T10:16:51.806Z,12.63
2022-08-03T10:19:22.244Z,13.35
2022-08-03T10:21:58.231Z,13.13
2022-08-03T10:24:32.334Z,13.27
2022-08-03T10:27:09.243Z,17.15
2022-08-03T10:30:05.028Z,12.50
2022-08-03T10:32:41.122Z,11.10
2022-08-03T10:35:23.071Z,11.32
2022-08-03T10:38:04.714Z,16.40
2022-08-03T10:40:48.627Z,10.45
2022-08-03T10:43:47.337Z,12.40
2022-08-03T10:46:20.849Z,15.32
2022-08-03T10:48:53.972Z,11.60
2022-08-03T10:51:25.710Z,10.90
2022-08-03T10:53:56.041Z,13.52
2022-08-03T10:56:52.603Z,11.10
2022-08-03T10:59:52.219Z,12.25
2022-08-03T11:02:22.678Z,15.32
2022-08-03T11:05:29.111Z,18.85
2022-08-03T11:08:20.710Z,15.43
2022-08-03T11:10:53.896Z,17.25
2022-08-03T11:13:27.077Z,14.13
2022-08-03T11:16:02.442Z,15.60
2022-08-03T11:18:35.259Z,13.90
2022-08-03T11:21:06.233Z,11.75
2022-08-03T11:24:04.779Z,17.02
2022-08-03T11:26:36.537Z,20.73
2022-08-03T11:29:35.297Z,20.80
2022-08-03T11:32:06.376Z,20.40
2022-08-03T11:34:57.207Z,18.98
2022-08-03T11:37:32.888Z,21.27
2022-08-03T11:40:03.842Z,16.67
2022-08-03T11:42:37.990Z,17.92
2022-08-03T11:45:11.288Z,19.67
2022-08-03T11:47:50.826Z,12.85
2022-08-03T11:50:24.066Z,16.50
2022-08-03T11:52:55.659Z,17.80
2022-08-03T11:55:30.491Z,13.80
2022-08-03T11:58:58.163Z,15.52
2022-08-03T12:00:52.874Z,19.90
2022-08-03T12:03:23.501Z,13.25
2022-08-03T12:05:55.527Z,20.20
2022-08-03T12:08:29.209Z,18.40
2022-08-03T12:11:01.005Z,16.48
2022-08-03T12:14:44.706Z,11.70
2022-08-03T12:16:48.868Z,17.48
2022-08-03T12:19:19.200Z,15.10
2022-08-03T12:21:57.420Z,23.95
2022-08-03T12:27:01.167Z,20.60
2022-08-03T12:29:31.064Z,26.38
2022-08-03T12:32:01.455Z,23.52
2022-08-03T12:34:50.929Z,29.52
2022-08-03T12:37:23.674Z,31.95
2022-08-03T12:40:03.007Z,33.78
2022-08-03T12:42:38.508Z,30.63
2022-08-03T12:47:57.102Z,25.35
2022-08-03T12:50:31.565Z,34.33
2022-08-03T12:53:04.422Z,29.23
2022-08-03T12:58:41.421Z,27.58
2022-08-03T13:01:13.797Z,48.28
2022-08-03T13:03:52.549Z,31.50
2022-08-03T13:06:27.675Z,19.67
2022-08-03T13:09:08.719Z,31.90
2022-08-03T13:11:57.693Z,33.53
2022-08-03T13:14:29.551Z,35.08
2022-08-03T13:16:59.503Z,66.53
2022-08-03T13:19:30.012Z,43.15
2022-08-03T13:22:04.156Z,30.52
2022-08-03T13:24:35.538Z,28.13
2022-08-03T13:28:01.958Z,40.53
2022-08-03T13:29:58.629Z,23.05
2022-08-03T13:32:28.995Z,27.10
2022-08-03T13:35:00.114Z,31.23
2022-08-03T13:37:31.787Z,27.52
2022-08-03T13:40:04.700Z,24.20
2022-08-03T13:42:38.951Z,25.88
2022-08-03T13:45:11.405Z,21.17
2022-08-03T13:47:41.613Z,48.85
2022-08-03T13:50:11.645Z,29.55
2022-08-03T13:52:42.411Z,17.00
2022-08-03T13:55:13.013Z,15.43
2022-08-03T13:58:03.232Z,16.35
2022-08-03T14:00:33.435Z,16.17
2022-08-03T14:03:12.812Z,14.18
2022-08-03T14:05:45.752Z,14.80
2022-08-03T14:08:16.035Z,16.15
2022-08-03T14:10:47.166Z,19.20
2022-08-03T14:13:18.374Z,15.95
2022-08-03T14:15:51.216Z,13.93
2022-08-03T14:18:27.673Z,14.77
2022-08-03T14:21:04.942Z,12.32
2022-08-03T14:23:38.891Z,13.48
2022-08-03T14:26:11.128Z,12.25
2022-08-03T14:28:41.940Z,9.80
2022-08-03T14:32:09.020Z,12.95
2022-08-03T14:34:02.842Z,7.53
2022-08-03T14:36:33.712Z,7.22
2022-08-03T14:39:05.642Z,8.60
2022-08-03T14:41:35.568Z,5.00
2022-08-03T14:44:06.419Z,6.25
2022-08-03T14:46:37.211Z,6.88
2022-08-03T14:50:36.511Z,5.90
2022-08-03T14:51:57.573Z,6.95
2022-08-03T14:54:27.785Z,9.38
2022-08-03T14:56:58.441Z,6.75
2022-08-03T14:59:29.372Z,6.70
2022-08-03T15:04:54.906Z,8.32
2022-08-03T15:07:25.011Z,8.30
2022-08-03T15:09:55.141Z,8.90
2022-08-03T15:12:25.385Z,6.25
2022-08-03T15:14:55.291Z,5.68
2022-08-03T15:17:25.836Z,7.72
2022-08-03T15:20:02.236Z,5.60
2022-08-03T15:22:46.829Z,7.18
2022-08-03T15:26:28.009Z,7.40
2022-08-03T15:28:07.630Z,6.93
2022-08-03T15:30:38.922Z,6.53
2022-08-03T15:33:09.802Z,5.82
2022-08-03T15:35:39.753Z,5.68
2022-08-03T15:38:10.087Z,5.75
2022-08-03T15:40:40.795Z,6.57
2022-08-03T15:43:11.646Z,8.10
2022-08-03T15:45:41.882Z,4.40
2022-08-03T15:48:12.206Z,5.65
2022-08-03T15:50:42.679Z,5.05
2022-08-03T15:55:45.049Z,5.97
2022-08-03T15:59:04.410Z,5.10
2022-08-03T16:01:07.573Z,6.95
2022-08-03T16:03:38.284Z,5.97
2022-08-03T16:06:09.939Z,5.70
2022-08-03T16:08:40.125Z,4.85
2022-08-03T16:11:10.646Z,9.02
2022-08-03T16:14:13.851Z,8.85
2022-08-03T16:16:31.366Z,5.38
2022-08-03T16:19:05.520Z,8.75
2022-08-03T16:21:38.588Z,5.75
2022-08-03T16:24:21.923Z,8.13
2022-08-03T16:27:00.525Z,5.90
2022-08-03T16:29:31.052Z,4.20
2022-08-03T16:32:09.482Z,4.93
2022-08-03T16:34:41.241Z,5.72
2022-08-03T16:37:37.182Z,6.22
2022-08-03T16:42:31.945Z,6.47
2022-08-03T16:45:02.274Z,5.30
2022-08-03T16:47:32.239Z,7.57
2022-08-03T16:50:07.257Z,7.10
2022-08-03T16:52:42.099Z,5.90
2022-08-03T16:55:43.003Z,7.10
2022-08-03T16:58:09.055Z,5.28
2022-08-03T17:00:44.259Z,4.80
2022-08-03T17:03:24.413Z,5.50
2022-08-03T17:05:55.486Z,4.47
2022-08-03T17:08:30.097Z,8.35
2022-08-03T17:11:00.372Z,6.38
2022-08-03T17:13:39.108Z,5.63
2022-08-03T17:16:15.406Z,7.72
2022-08-03T17:19:02.137Z,5.20
2022-08-03T17:21:39.276Z,4.70
2022-08-03T17:24:40.846Z,5.47
2022-08-03T17:28:41.765Z,5.55
2022-08-03T17:30:11.963Z,7.13
2022-08-03T17:32:57.633Z,7.32
2022-08-03T17:35:34.424Z,4.55
2022-08-03T17:38:13.798Z,4.75
2022-08-03T17:40:48.166Z,6.07
2022-08-03T17:44:14.168Z,9.15
2022-08-03T17:46:12.268Z,6.82
2022-08-03T17:48:43.282Z,6.30
2022-08-03T17:51:21.602Z,7.70
2022-08-03T17:56:40.380Z,8.40
2022-08-03T17:59:25.207Z,10.73
2022-08-03T18:03:06.965Z,7.95
2022-08-03T18:06:12.540Z,7.30
2022-08-03T18:08:40.218Z,7.25
2022-08-03T18:14:30.062Z,8.20
2022-08-03T18:17:10.361Z,5.80
2022-08-03T18:20:03.773Z,4.32
2022-08-03T18:22:31.895Z,6.47
2022-08-03T18:25:07.778Z,7.35
2022-08-03T18:27:42.619Z,6.18
2022-08-03T18:30:18.698Z,4.80
2022-08-03T18:33:00.437Z,5.60
2022-08-03T18:35:53.379Z,6.55
2022-08-03T18:38:23.801Z,7.60
2022-08-03T18:40:54.114Z,7.22
2022-08-03T18:43:47.188Z,7.80
2022-08-03T18:46:45.559Z,7.15
2022-08-03T18:49:52.793Z,6.78
2022-08-03T18:52:27.750Z,8.57
2022-08-03T18:55:19.841Z,7.05
2022-08-03T18:58:02.108Z,6.97
2022-08-03T19:00:53.854Z,8.57
2022-08-03T19:03:41.283Z,7.32
2022-08-03T19:06:23.176Z,6.95
2022-08-03T19:09:14.184Z,7.22
2022-08-03T19:12:12.593Z,6.00
2022-08-03T19:14:54.575Z,11.02
2022-08-03T19:17:29.438Z,5.78
2022-08-03T19:20:02.574Z,5.70
2022-08-03T19:22:34.319Z,7.75
2022-08-03T19:25:07.634Z,6.15
2022-08-03T19:27:45.438Z,10.32
2022-08-03T19:30:38.943Z,8.65
2022-08-03T19:33:14.918Z,6.88
2022-08-03T19:35:54.991Z,5.93
2022-08-03T19:38:29.681Z,8.88
2022-08-03T19:41:04.459Z,7.32
2022-08-03T19:43:53.933Z,6.72
2022-08-03T19:46:34.516Z,7.60
2022-08-03T19:49:16.357Z,7.18
2022-08-03T19:52:02.345Z,6.85
2022-08-03T19:54:45.804Z,7.88
2022-08-03T19:57:26.831Z,6.45
2022-08-03T19:59:58.839Z,8.85
2022-08-03T20:02:35.940Z,4.47
2022-08-03T20:05:14.753Z,9.63
2022-08-03T20:07:48.622Z,5.88
2022-08-03T20:10:20.646Z,7.32
2022-08-03T20:12:51.578Z,6.00
2022-08-03T20:15:22.463Z,9.48
2022-08-03T20:18:02.359Z,9.88
2022-08-03T20:20:36.212Z,25.73
2022-08-03T20:23:15.049Z,16.60
2022-08-03T20:25:58.673Z,14.32
2022-08-03T20:29:10.399Z,9.73
2022-08-03T20:31:41.588Z,8.43
2022-08-03T20:34:12.360Z,8.18
2022-08-03T20:36:47.777Z,9.15
2022-08-03T20:39:17.650Z,7.70
2022-08-03T20:41:49.320Z,8.45
2022-08-03T20:44:19.563Z,11.45
2022-08-03T20:47:00.514Z,12.55
2022-08-03T20:49:45.655Z,8.40
2022-08-03T20:52:18.413Z,8.07
2022-08-03T20:54:50.168Z,11.95
2022-08-03T20:57:20.704Z,12.43
2022-08-03T20:59:51.732Z,16.67
2022-08-03T21:02:29.945Z,9.70
2022-08-03T21:05:08.556Z,15.75
2022-08-03T21:08:06.508Z,15.27
2022-08-03T21:10:42.148Z,15.02
2022-08-03T21:13:04.851Z,12.40
2022-08-03T21:13:29.748Z,12.52
2022-08-03T21:16:14.198Z,11.15
2022-08-03T21:18:50.559Z,9.10
2022-08-03T21:21:23.159Z,13.20
2022-08-03T21:23:56.438Z,18.23
2022-08-03T21:26:29.281Z,19.13
2022-08-03T21:28:59.698Z,13.80
2022-08-03T21:31:29.792Z,18.77
2022-08-03T21:34:03.703Z,17.05
2022-08-03T21:36:36.957Z,13.60
2022-08-03T21:39:09.761Z,19.73
2022-08-03T21:41:41.868Z,21.98
2022-08-03T21:44:12.593Z,19.70
2022-08-03T21:46:44.184Z,17.10
2022-08-03T21:50:04.478Z,21.27
2022-08-03T21:52:07.838Z,17.52
2022-08-03T21:54:42.858Z,19.48
2022-08-03T21:57:23.794Z,31.15
2022-08-03T21:59:57.839Z,42.70
2022-08-03T22:02:32.067Z,36.15
2022-08-03T22:05:04.885Z,43.97
2022-08-03T22:07:36.792Z,44.95
2022-08-03T22:10:08.875Z,35.85
2022-08-03T22:12:40.042Z,35.72
2022-08-03T22:15:13.181Z,30.15
2022-08-03T22:17:55.596Z,26.95
2022-08-03T22:20:27.727Z,34.95
2022-08-03T22:23:02.183Z,27.25
2022-08-03T22:25:35.770Z,26.85
2022-08-03T22:28:16.192Z,25.90
2022-08-03T22:30:48.953Z,27.60
2022-08-03T22:33:20.395Z,31.85
2022-08-03T22:35:53.200Z,24.75
2022-08-03T22:38:24.115Z,26.05
2022-08-03T22:40:55.109Z,28.73
2022-08-03T22:43:29.245Z,36.42
2022-08-03T22:46:09.320Z,30.65
2022-08-03T22:48:43.428Z,21.33
2022-08-03T22:51:13.878Z,18.58
2022-08-03T22:53:46.357Z,21.60
2022-08-03T22:56:17.014Z,22.35
2022-08-03T22:58:47.627Z,20.83
2022-08-03T23:01:21.460Z,22.13
2022-08-03T23:04:02.078Z,20.10
2022-08-03T23:06:40.018Z,22.40
2022-08-03T23:09:16.091Z,24.08
2022-08-03T23:11:46.989Z,25.90
2022-08-03T23:14:19.250Z,21.77
2022-08-03T23:16:52.019Z,21.90
2022-08-03T23:19:25.871Z,22.20
2022-08-03T23:22:02.444Z,20.42
2022-08-03T23:24:38.195Z,23.98
2022-08-03T23:27:10.688Z,24.38
2022-08-03T23:29:45.081Z,21.75
2022-08-03T23:32:15.899Z,19.73
2022-08-03T23:35:07.441Z,23.83
2022-08-03T23:38:03.926Z,21.33
2022-08-03T23:40:32.286Z,28.48
2022-08-03T23:43:04.177Z,26.33
2022-08-03T23:45:37.864Z,21.55
2022-08-03T23:48:08.476Z,20.38
2022-08-03T23:50:49.699Z,23.98
2022-08-03T23:53:26.357Z,25.70
2022-08-03T23:56:26.165Z,20.48
2022-08-03T23:59:15.864Z,21.08
